createdAt,value
2023-05-23T00:02:19.166Z,57.69
2023-05-23T00:04:46.535Z,57.62
2023-05-23T00:07:13.905Z,57.76
2023-05-23T00:09:41.447Z,57.80
2023-05-23T00:12:08.827Z,57.92
2023-05-23T00:14:36.228Z,58.00
2023-05-23T00:17:03.875Z,57.96
2023-05-23T00:19:31.818Z,58.14
2023-05-23T00:21:59.453Z,58.10
2023-05-23T00:24:27.374Z,58.21
2023-05-23T00:26:54.676Z,58.31
2023-05-23T00:29:22.208Z,58.28
2023-05-23T00:31:50.514Z,58.46
2023-05-23T00:34:18.275Z,58.44
2023-05-23T00:36:48.107Z,58.56
2023-05-23T00:39:20.198Z,58.57
2023-05-23T00:41:51.463Z,58.82
2023-05-23T00:44:21.374Z,58.80
2023-05-23T00:46:54.191Z,58.93
2023-05-23T00:49:22.357Z,58.89
2023-05-23T00:51:50.882Z,58.87
2023-05-23T00:54:25.642Z,59.01
2023-05-23T00:56:53.472Z,59.26
2023-05-23T00:59:21.639Z,59.29
2023-05-23T01:01:49.734Z,59.44
2023-05-23T01:04:20.194Z,59.56
2023-05-23T01:06:49.381Z,59.59
2023-05-23T01:09:17.025Z,59.64
2023-05-23T01:12:06.683Z,59.68
2023-05-23T01:15:03.472Z,59.57
2023-05-23T01:17:45.198Z,59.56
2023-05-23T01:20:23.238Z,59.72
2023-05-23T01:23:00.553Z,59.54
2023-05-23T01:25:50.362Z,59.46
2023-05-23T01:28:20.109Z,59.53
2023-05-23T01:30:48.797Z,59.47
2023-05-23T01:33:17.543Z,59.55
2023-05-23T01:35:44.921Z,59.40
2023-05-23T01:38:12.213Z,59.43
2023-05-23T01:40:39.694Z,59.47
2023-05-23T01:43:07.073Z,59.47
2023-05-23T01:45:34.503Z,59.68
2023-05-23T01:48:04.025Z,59.62
2023-05-23T01:50:32.849Z,59.70
2023-05-23T01:53:00.622Z,59.83
2023-05-23T01:55:29.009Z,59.69
2023-05-23T01:57:57.173Z,59.77
2023-05-23T02:00:24.463Z,59.93
2023-05-23T02:02:53.104Z,59.85
2023-05-23T02:05:20.774Z,59.77
2023-05-23T02:07:48.104Z,59.78
2023-05-23T02:10:17.968Z,59.86
2023-05-23T02:12:45.617Z,59.92
2023-05-23T02:15:12.899Z,59.92
2023-05-23T02:17:42.015Z,60.00
2023-05-23T02:20:10.341Z,59.98
2023-05-23T02:22:38.824Z,59.92
2023-05-23T02:25:07.189Z,59.94
2023-05-23T02:27:34.604Z,59.99
2023-05-23T02:30:02.114Z,59.80
2023-05-23T02:32:30.680Z,60.15
2023-05-23T02:34:58.362Z,59.85
2023-05-23T02:37:25.716Z,60.11
2023-05-23T02:39:53.776Z,60.22
2023-05-23T02:42:22.509Z,60.17
2023-05-23T02:44:49.895Z,60.09
2023-05-23T02:47:18.630Z,60.27
2023-05-23T02:49:46.015Z,60.43
2023-05-23T02:52:14.224Z,60.46
2023-05-23T02:54:41.971Z,60.38
2023-05-23T02:57:09.413Z,60.48
2023-05-23T02:59:37.419Z,60.35
2023-05-23T03:02:04.983Z,60.58
2023-05-23T03:04:32.463Z,60.53
2023-05-23T03:06:59.943Z,60.58
2023-05-23T03:09:27.484Z,60.68
2023-05-23T03:11:54.904Z,60.73
2023-05-23T03:14:22.369Z,60.92
2023-05-23T03:16:49.862Z,60.95
2023-05-23T03:19:17.351Z,61.06
2023-05-23T03:21:45.115Z,61.19
2023-05-23T03:24:12.709Z,61.10
2023-05-23T03:26:40.111Z,61.20
2023-05-23T03:29:07.649Z,61.17
2023-05-23T03:31:35.115Z,61.19
2023-05-23T03:34:05.759Z,61.17
2023-05-23T03:36:39.476Z,61.19
2023-05-23T03:39:07.848Z,61.14
2023-05-23T03:41:35.480Z,60.97
2023-05-23T03:44:03.768Z,61.10
2023-05-23T03:46:31.923Z,60.83
2023-05-23T03:48:59.616Z,60.72
2023-05-23T03:51:28.255Z,60.86
2023-05-23T03:53:56.178Z,60.56
2023-05-23T03:56:24.098Z,60.65
2023-05-23T03:58:51.869Z,60.56
2023-05-23T04:01:19.316Z,60.47
2023-05-23T04:03:48.314Z,60.52
2023-05-23T04:06:17.478Z,60.26
2023-05-23T04:08:46.765Z,60.10
2023-05-23T04:11:14.349Z,59.92
2023-05-23T04:13:43.007Z,59.95
2023-05-23T04:16:11.613Z,59.68
2023-05-23T04:18:39.402Z,59.47
2023-05-23T04:21:08.087Z,59.24
2023-05-23T04:23:39.928Z,59.05
2023-05-23T04:26:10.431Z,58.81
2023-05-23T04:28:44.268Z,58.42
2023-05-23T04:31:12.825Z,58.11
2023-05-23T04:33:40.264Z,58.03
2023-05-23T04:36:11.274Z,57.82
2023-05-23T04:38:42.591Z,57.66
2023-05-23T04:41:13.338Z,57.59
2023-05-23T04:43:59.950Z,57.51
2023-05-23T04:46:53.517Z,57.29
2023-05-23T04:49:25.572Z,57.12
2023-05-23T04:51:53.643Z,57.02
2023-05-23T04:54:27.754Z,56.94
2023-05-23T04:56:57.117Z,56.93
2023-05-23T04:59:27.673Z,56.83
2023-05-23T05:01:55.119Z,56.81
2023-05-23T05:04:23.737Z,56.86
2023-05-23T05:06:52.677Z,56.85
2023-05-23T05:09:22.196Z,56.82
2023-05-23T05:11:50.076Z,56.74
2023-05-23T05:14:17.397Z,56.66
2023-05-23T05:16:46.425Z,56.56
2023-05-23T05:19:14.136Z,56.32
2023-05-23T05:21:41.888Z,56.18
2023-05-23T05:24:12.918Z,55.95
2023-05-23T05:26:42.742Z,56.10
2023-05-23T05:30:10.451Z,56.42
2023-05-23T05:32:47.928Z,56.48
2023-05-23T05:35:15.978Z,56.39
2023-05-23T05:37:45.022Z,56.37
2023-05-23T05:40:13.456Z,56.34
2023-05-23T05:42:43.162Z,56.19
2023-05-23T05:45:11.585Z,55.88
2023-05-23T05:47:40.338Z,55.56
2023-05-23T05:50:09.585Z,55.43
2023-05-23T05:52:39.937Z,55.39
2023-05-23T05:55:08.828Z,55.39
2023-05-23T05:57:38.875Z,55.14
2023-05-23T06:00:13.690Z,54.73
2023-05-23T06:02:48.802Z,54.77
2023-05-23T06:05:19.822Z,54.60
2023-05-23T06:07:48.936Z,54.23
2023-05-23T06:10:16.755Z,54.24
2023-05-23T06:12:46.065Z,54.38
2023-05-23T06:15:14.819Z,54.15
2023-05-23T06:17:42.572Z,54.01
2023-05-23T06:20:10.994Z,53.88
2023-05-23T06:22:40.248Z,53.68
2023-05-23T06:25:08.047Z,53.50
2023-05-23T06:27:35.569Z,53.37
2023-05-23T06:30:07.075Z,53.11
2023-05-23T06:32:34.455Z,52.97
2023-05-23T06:35:03.409Z,52.77
2023-05-23T06:37:40.921Z,52.83
2023-05-23T06:40:10.038Z,52.79
2023-05-23T06:42:37.332Z,52.48
2023-05-23T06:45:23.470Z,52.33
2023-05-23T06:47:51.427Z,52.44
2023-05-23T06:50:20.167Z,52.52
2023-05-23T06:52:47.791Z,52.36
2023-05-23T06:55:18.421Z,52.28
2023-05-23T06:57:47.304Z,52.15
2023-05-23T07:00:15.199Z,52.20
2023-05-23T07:02:51.807Z,52.18
2023-05-23T07:05:20.460Z,52.20
2023-05-23T07:07:49.317Z,52.05
2023-05-23T07:10:17.010Z,52.20
2023-05-23T07:12:44.715Z,52.45
2023-05-23T07:15:12.696Z,52.43
2023-05-23T07:17:46.335Z,52.20
2023-05-23T07:20:13.995Z,52.02
2023-05-23T07:22:41.700Z,52.09
2023-05-23T07:25:09.657Z,52.09
2023-05-23T07:27:39.224Z,52.09
2023-05-23T07:30:09.681Z,52.11
2023-05-23T07:33:30.003Z,52.09
2023-05-23T07:36:01.002Z,52.07
2023-05-23T07:38:28.428Z,52.22
2023-05-23T07:41:09.828Z,52.23
2023-05-23T07:43:39.631Z,52.20
2023-05-23T07:46:07.398Z,52.08
2023-05-23T07:48:34.847Z,51.79
2023-05-23T07:51:04.065Z,51.41
2023-05-23T07:53:31.773Z,51.40
2023-05-23T07:55:59.317Z,51.57
2023-05-23T07:58:29.308Z,51.51
2023-05-23T08:00:58.084Z,51.07
2023-05-23T08:03:57.973Z,50.58
2023-05-23T08:06:31.911Z,50.13
2023-05-23T08:09:01.548Z,49.92
2023-05-23T08:11:30.858Z,49.58
2023-05-23T08:15:09.203Z,49.19
2023-05-23T08:17:41.721Z,49.24
2023-05-23T08:20:10.266Z,49.08
2023-05-23T08:22:37.975Z,48.92
2023-05-23T08:25:06.250Z,48.66
2023-05-23T08:27:39.272Z,48.64
2023-05-23T08:30:17.448Z,48.58
2023-05-23T08:32:44.949Z,48.46
2023-05-23T08:35:12.642Z,48.13
2023-05-23T08:37:43.726Z,47.90
2023-05-23T08:40:15.810Z,47.69
2023-05-23T08:42:51.220Z,46.75
2023-05-23T08:45:19.393Z,46.64
2023-05-23T08:47:47.436Z,46.52
2023-05-23T08:50:18.013Z,46.21
2023-05-23T08:52:56.710Z,45.40
2023-05-23T08:55:28.821Z,44.62
2023-05-23T08:57:59.641Z,44.15
2023-05-23T09:00:34.982Z,43.78
2023-05-23T09:03:02.682Z,43.85
2023-05-23T09:05:50.765Z,43.69
2023-05-23T09:08:19.258Z,43.38
2023-05-23T09:10:50.355Z,42.92
2023-05-23T09:13:20.447Z,42.50
2023-05-23T09:16:00.389Z,42.30
2023-05-23T09:18:43.859Z,41.62
2023-05-23T09:21:13.196Z,40.48
2023-05-23T09:23:46.912Z,39.89
2023-05-23T09:26:14.374Z,39.46
2023-05-23T09:28:42.653Z,38.52
2023-05-23T09:31:11.053Z,38.00
2023-05-23T09:33:48.391Z,37.44
2023-05-23T09:36:17.331Z,36.70
2023-05-23T09:38:46.546Z,35.94
2023-05-23T09:41:14.216Z,35.29
2023-05-23T09:43:52.253Z,34.44
2023-05-23T09:46:20.933Z,33.93
2023-05-23T09:48:49.316Z,33.26
2023-05-23T09:51:16.784Z,32.60
2023-05-23T09:53:44.190Z,31.89
2023-05-23T09:56:11.744Z,31.26
2023-05-23T09:58:40.524Z,31.05
2023-05-23T10:01:10.125Z,30.83
2023-05-23T10:03:42.910Z,30.64
2023-05-23T10:06:13.328Z,30.46
2023-05-23T10:08:44.067Z,30.31
2023-05-23T10:11:14.427Z,30.03
2023-05-23T10:13:45.328Z,30.21
2023-05-23T10:16:22.390Z,30.51
2023-05-23T10:18:56.730Z,30.54
2023-05-23T10:21:25.864Z,30.52
2023-05-23T10:23:53.296Z,30.78
2023-05-23T10:26:20.681Z,31.01
2023-05-23T10:28:48.061Z,30.96
2023-05-23T10:31:15.601Z,30.74
2023-05-23T10:33:44.733Z,30.57
2023-05-23T10:36:17.755Z,30.21
2023-05-23T10:39:06.492Z,30.16
2023-05-23T10:41:41.734Z,30.02
2023-05-23T10:44:15.488Z,29.46
2023-05-23T10:46:59.011Z,29.03
2023-05-23T10:49:43.838Z,28.58
2023-05-23T10:52:13.237Z,28.44
2023-05-23T10:54:50.517Z,28.24
2023-05-23T10:57:19.955Z,27.98
2023-05-23T10:59:47.582Z,27.54
2023-05-23T11:02:16.324Z,27.45
2023-05-23T11:04:44.005Z,27.58
2023-05-23T11:07:31.315Z,27.78
2023-05-23T11:10:14.442Z,27.47
2023-05-23T11:12:42.835Z,27.29
2023-05-23T11:15:24.054Z,27.17
2023-05-23T11:17:57.674Z,26.78
2023-05-23T11:20:27.510Z,26.47
2023-05-23T11:23:07.793Z,26.39
2023-05-23T11:25:45.615Z,26.32
2023-05-23T11:28:13.591Z,25.92
2023-05-23T11:30:41.511Z,25.74
2023-05-23T11:33:13.713Z,25.75
2023-05-23T11:35:46.013Z,25.46
2023-05-23T11:38:14.717Z,25.82
2023-05-23T11:40:44.405Z,26.25
2023-05-23T11:43:14.166Z,26.60
2023-05-23T11:45:42.196Z,26.97
2023-05-23T11:48:13.087Z,27.00
2023-05-23T11:50:53.327Z,27.08
2023-05-23T11:53:22.244Z,26.72
2023-05-23T11:55:55.313Z,26.32
2023-05-23T11:58:22.983Z,26.10
2023-05-23T12:00:51.057Z,25.77
2023-05-23T12:03:19.192Z,25.51
2023-05-23T12:05:46.877Z,25.41
2023-05-23T12:08:14.997Z,25.07
2023-05-23T12:10:53.121Z,24.97
2023-05-23T12:13:21.098Z,24.72
2023-05-23T12:15:49.795Z,24.63
2023-05-23T12:18:20.894Z,24.76
2023-05-23T12:20:52.088Z,24.70
2023-05-23T12:23:21.806Z,24.62
2023-05-23T12:25:53.039Z,24.66
2023-05-23T12:28:21.265Z,24.79
2023-05-23T12:30:49.643Z,24.77
2023-05-23T12:33:18.471Z,24.82
2023-05-23T12:35:46.226Z,24.73
2023-05-23T12:38:17.560Z,24.76
2023-05-23T12:40:44.891Z,24.96
2023-05-23T12:43:12.872Z,24.99
2023-05-23T12:45:40.671Z,25.11
2023-05-23T12:48:08.850Z,25.00
2023-05-23T12:50:36.424Z,24.87
2023-05-23T12:53:03.769Z,25.10
2023-05-23T12:55:31.041Z,25.33
2023-05-23T12:57:58.493Z,25.25
2023-05-23T13:00:26.075Z,25.31
2023-05-23T13:02:53.539Z,24.98
2023-05-23T13:05:22.629Z,24.80
2023-05-23T13:07:50.047Z,24.76
2023-05-23T13:10:17.525Z,24.99
2023-05-23T13:12:44.864Z,25.41
2023-05-23T13:15:12.749Z,25.81
2023-05-23T13:17:41.038Z,26.51
2023-05-23T13:20:09.558Z,27.23
2023-05-23T13:22:36.979Z,27.80
2023-05-23T13:25:04.625Z,28.20
2023-05-23T13:27:31.938Z,28.86
2023-05-23T13:29:59.348Z,29.29
2023-05-23T13:32:26.804Z,30.10
2023-05-23T13:34:54.202Z,30.54
2023-05-23T13:37:21.534Z,31.00
2023-05-23T13:39:49.393Z,31.51
2023-05-23T13:42:16.793Z,32.00
2023-05-23T13:44:44.214Z,32.45
2023-05-23T13:47:13.256Z,32.74
2023-05-23T13:49:41.824Z,32.95
2023-05-23T13:52:09.189Z,33.20
2023-05-23T13:54:36.513Z,33.64
2023-05-23T13:57:04.001Z,33.73
2023-05-23T13:59:31.357Z,34.17
2023-05-23T14:01:58.820Z,34.30
2023-05-23T14:04:26.259Z,34.54
2023-05-23T14:06:53.786Z,34.62
2023-05-23T14:09:23.056Z,34.69
2023-05-23T14:11:52.517Z,34.90
2023-05-23T14:14:19.933Z,34.90
2023-05-23T14:16:47.522Z,34.96
2023-05-23T14:19:15.211Z,35.22
2023-05-23T14:21:44.778Z,35.61
2023-05-23T14:24:12.530Z,35.85
2023-05-23T14:26:39.907Z,35.87
2023-05-23T14:29:07.801Z,35.97
2023-05-23T14:31:35.598Z,36.32
2023-05-23T14:34:03.182Z,36.38
2023-05-23T14:36:31.837Z,36.63
2023-05-23T14:38:59.216Z,36.79
2023-05-23T14:41:28.908Z,37.02
2023-05-23T14:43:56.307Z,37.23
2023-05-23T14:46:23.825Z,37.58
2023-05-23T14:48:51.638Z,37.70
2023-05-23T14:51:30.750Z,37.92
2023-05-23T14:54:06.257Z,37.94
2023-05-23T14:56:33.734Z,38.16
2023-05-23T14:59:01.677Z,38.30
2023-05-23T15:01:29.078Z,38.16
2023-05-23T15:03:56.489Z,38.23
2023-05-23T15:06:23.990Z,38.30
2023-05-23T15:08:52.388Z,38.47
2023-05-23T15:11:19.740Z,38.56
2023-05-23T15:13:47.146Z,38.71
2023-05-23T15:16:16.276Z,38.73
2023-05-23T15:18:43.869Z,38.64
2023-05-23T15:21:12.506Z,38.76
2023-05-23T15:23:39.896Z,38.79
2023-05-23T15:26:07.230Z,38.90
2023-05-23T15:28:34.549Z,38.94
2023-05-23T15:31:01.983Z,39.17
2023-05-23T15:33:29.435Z,39.25
2023-05-23T15:35:58.945Z,39.45
2023-05-23T15:38:26.393Z,39.54
2023-05-23T15:40:55.614Z,39.59
2023-05-23T15:43:24.911Z,39.44
2023-05-23T15:45:52.785Z,39.46
2023-05-23T15:48:21.359Z,39.39
2023-05-23T15:50:48.832Z,39.52
2023-05-23T15:53:16.184Z,39.53
2023-05-23T15:55:43.703Z,39.56
2023-05-23T15:58:11.311Z,39.57
2023-05-23T16:00:38.817Z,39.78
2023-05-23T16:03:06.456Z,39.90
2023-05-23T16:05:33.897Z,40.09
2023-05-23T16:08:01.198Z,40.27
2023-05-23T16:10:28.550Z,40.69
2023-05-23T16:12:55.959Z,40.88
2023-05-23T16:15:23.251Z,41.15
2023-05-23T16:17:50.631Z,41.30
2023-05-23T16:20:18.023Z,41.56
2023-05-23T16:22:46.554Z,41.58
2023-05-23T16:25:13.893Z,41.80
2023-05-23T16:27:41.258Z,41.96
2023-05-23T16:30:09.881Z,42.06
2023-05-23T16:32:37.640Z,42.32
2023-05-23T16:35:05.533Z,42.33
2023-05-23T16:37:33.003Z,42.49
2023-05-23T16:40:00.850Z,42.46
2023-05-23T16:42:28.847Z,42.65
2023-05-23T16:44:59.337Z,42.76
2023-05-23T16:47:26.776Z,42.92
2023-05-23T16:49:54.186Z,42.95
2023-05-23T16:52:22.107Z,43.14
2023-05-23T16:54:49.717Z,43.28
2023-05-23T16:57:17.073Z,43.36
2023-05-23T16:59:44.485Z,43.43
2023-05-23T17:02:14.005Z,43.63
2023-05-23T17:04:41.793Z,43.78
2023-05-23T17:07:09.643Z,44.03
2023-05-23T17:09:37.326Z,44.47
2023-05-23T17:12:05.446Z,44.70
2023-05-23T17:14:33.744Z,45.11
2023-05-23T17:17:03.613Z,45.31
2023-05-23T17:19:31.267Z,45.53
2023-05-23T17:21:59.221Z,45.59
2023-05-23T17:24:26.659Z,46.09
2023-05-23T17:26:54.073Z,46.19
2023-05-23T17:29:22.383Z,46.39
2023-05-23T17:31:50.006Z,46.56
2023-05-23T17:34:18.038Z,46.77
2023-05-23T17:36:45.533Z,47.20
2023-05-23T17:39:14.960Z,47.47
2023-05-23T17:41:42.903Z,47.52
2023-05-23T17:44:19.879Z,47.78
2023-05-23T17:48:09.381Z,47.85
2023-05-23T17:50:38.093Z,48.15
2023-05-23T17:53:05.656Z,48.24
2023-05-23T17:55:33.171Z,48.44
2023-05-23T17:58:01.239Z,48.43
2023-05-23T18:00:28.737Z,48.64
2023-05-23T18:02:57.268Z,48.69
2023-05-23T18:05:24.806Z,48.86
2023-05-23T18:07:54.693Z,49.32
2023-05-23T18:10:22.363Z,49.30
2023-05-23T18:12:51.337Z,49.51
2023-05-23T18:15:18.881Z,49.60
2023-05-23T18:17:46.330Z,49.72
2023-05-23T18:20:13.922Z,49.94
2023-05-23T18:22:41.428Z,49.82
2023-05-23T18:25:09.524Z,49.99
2023-05-23T18:27:36.904Z,50.15
2023-05-23T18:30:04.684Z,50.26
2023-05-23T18:32:32.221Z,50.52
2023-05-23T18:34:59.596Z,50.62
2023-05-23T18:37:27.054Z,50.69
2023-05-23T18:39:58.119Z,50.97
2023-05-23T18:42:25.939Z,51.20
2023-05-23T18:44:53.301Z,51.40
2023-05-23T18:47:20.713Z,51.58
2023-05-23T18:49:49.778Z,51.62
2023-05-23T18:52:17.138Z,51.80
2023-05-23T18:54:44.623Z,52.02
2023-05-23T18:57:12.469Z,52.16
2023-05-23T18:59:39.862Z,52.47
2023-05-23T19:02:07.340Z,52.71
2023-05-23T19:04:34.727Z,52.97
2023-05-23T19:07:02.599Z,53.23
2023-05-23T19:09:29.935Z,53.44
2023-05-23T19:11:57.390Z,53.85
2023-05-23T19:14:24.748Z,54.05
2023-05-23T19:16:52.196Z,54.34
2023-05-23T19:19:20.306Z,54.48
2023-05-23T19:21:47.837Z,54.68
2023-05-23T19:24:16.079Z,54.90
2023-05-23T19:26:43.533Z,55.07
2023-05-23T19:29:11.562Z,55.40
2023-05-23T19:31:41.225Z,55.43
2023-05-23T19:34:08.941Z,55.68
2023-05-23T19:36:37.021Z,55.78
2023-05-23T19:39:05.008Z,55.92
2023-05-23T19:41:35.169Z,56.12
2023-05-23T19:44:03.445Z,56.17
2023-05-23T19:46:32.017Z,56.24
2023-05-23T19:49:01.000Z,56.31
2023-05-23T19:51:28.462Z,56.50
2023-05-23T19:53:56.025Z,56.74
2023-05-23T19:56:25.307Z,56.91
2023-05-23T19:58:52.829Z,57.05
2023-05-23T20:01:20.236Z,57.16
2023-05-23T20:03:47.911Z,57.20
2023-05-23T20:06:16.342Z,57.36
2023-05-23T20:08:44.432Z,57.62
2023-05-23T20:11:12.688Z,57.91
2023-05-23T20:13:40.726Z,58.11
2023-05-23T20:16:08.500Z,58.33
2023-05-23T20:18:36.380Z,58.59
2023-05-23T20:21:05.342Z,58.87
2023-05-23T20:23:33.091Z,59.24
2023-05-23T20:26:01.179Z,59.57
2023-05-23T20:28:29.237Z,59.66
2023-05-23T20:30:56.924Z,59.90
2023-05-23T20:33:25.164Z,59.87
2023-05-23T20:35:54.029Z,59.95
2023-05-23T20:38:21.630Z,60.07
2023-05-23T20:40:52.102Z,60.35
2023-05-23T20:43:20.387Z,60.57
2023-05-23T20:45:48.362Z,60.61
2023-05-23T20:48:16.324Z,60.83
2023-05-23T20:50:44.343Z,61.02
2023-05-23T20:53:11.899Z,61.05
2023-05-23T20:55:39.488Z,61.13
2023-05-23T20:58:07.335Z,61.20
2023-05-23T21:00:34.672Z,61.22
2023-05-23T21:03:02.461Z,61.35
2023-05-23T21:05:29.875Z,61.58
2023-05-23T21:07:57.261Z,61.66
2023-05-23T21:10:24.927Z,61.90
2023-05-23T21:12:52.412Z,61.95
2023-05-23T21:15:19.881Z,62.05
2023-05-23T21:17:47.511Z,62.11
2023-05-23T21:20:16.298Z,62.30
2023-05-23T21:22:44.029Z,62.52
2023-05-23T21:25:11.484Z,62.60
2023-05-23T21:27:38.869Z,62.76
2023-05-23T21:30:07.358Z,62.89
2023-05-23T21:32:34.766Z,63.02
2023-05-23T21:35:02.225Z,63.22
2023-05-23T21:37:32.216Z,63.36
2023-05-23T21:39:59.756Z,63.55
2023-05-23T21:42:27.189Z,63.70
2023-05-23T21:44:54.671Z,63.90
2023-05-23T21:47:24.206Z,64.12
2023-05-23T21:49:51.745Z,64.38
2023-05-23T21:52:19.633Z,64.60
2023-05-23T21:54:48.909Z,64.84
2023-05-23T21:57:16.331Z,65.00
2023-05-23T21:59:43.678Z,65.19
2023-05-23T22:02:11.470Z,65.32
2023-05-23T22:04:38.764Z,65.45
2023-05-23T22:07:06.227Z,65.63
2023-05-23T22:09:33.669Z,65.77
2023-05-23T22:12:01.105Z,65.85
2023-05-23T22:14:28.471Z,66.00
2023-05-23T22:16:56.437Z,66.11
2023-05-23T22:19:26.522Z,66.23
2023-05-23T22:21:53.966Z,66.39
2023-05-23T22:24:21.236Z,66.38
2023-05-23T22:26:48.603Z,66.58
2023-05-23T22:29:16.045Z,66.78
2023-05-23T22:31:43.477Z,66.88
2023-05-23T22:34:11.096Z,66.76
2023-05-23T22:36:39.087Z,66.88
2023-05-23T22:39:06.694Z,66.81
2023-05-23T22:41:34.552Z,66.73
2023-05-23T22:44:02.208Z,66.68
2023-05-23T22:46:29.750Z,66.71
2023-05-23T22:48:58.135Z,66.77
2023-05-23T22:51:25.529Z,66.88
2023-05-23T22:53:53.007Z,66.96
2023-05-23T22:56:20.414Z,67.03
2023-05-23T22:58:47.803Z,67.20
2023-05-23T23:01:15.163Z,67.27
2023-05-23T23:03:42.549Z,67.29
2023-05-23T23:06:10.030Z,67.39
2023-05-23T23:08:37.781Z,67.46
2023-05-23T23:11:05.176Z,67.66
2023-05-23T23:13:32.640Z,67.93
2023-05-23T23:16:00.140Z,67.95
2023-05-23T23:18:27.732Z,68.03
2023-05-23T23:20:55.157Z,68.20
2023-05-23T23:23:22.478Z,68.41
2023-05-23T23:25:52.746Z,68.62
2023-05-23T23:28:20.360Z,68.60
2023-05-23T23:30:48.114Z,68.75
2023-05-23T23:33:16.248Z,68.79
2023-05-23T23:35:46.548Z,68.97
2023-05-23T23:38:14.772Z,69.14
2023-05-23T23:40:44.475Z,69.29
2023-05-23T23:43:12.882Z,69.42
2023-05-23T23:45:40.425Z,69.55
2023-05-23T23:48:07.799Z,69.53
2023-05-23T23:50:35.293Z,69.65
2023-05-23T23:53:02.921Z,69.56
2023-05-23T23:55:30.255Z,69.66
2023-05-23T23:57:57.661Z,69.91
